Time;durP1;ratioP1;P1;durP2;ratioP2;P2;SDS_P1;SDS_P2;PMS_P1;PMS_P2;Temp;Humidity;BMP_temperature;BMP_pressure;BME280_temperature;BME280_humidity;BME280_pressure;Samples;Min_cycle;Max_cycle;Signal;HPM_P1;HPM_P2
2021/09/18 00:01:44;;;;;;;28.80;16.40;;;14.00;99.80;;;;;;5042483;28;20481;-84
2021/09/18 00:04:12;;;;;;;20.83;16.00;;;14.00;99.80;;;;;;5047870;28;20483;-85
2021/09/18 00:06:41;;;;;;;20.53;16.30;;;14.00;99.80;;;;;;5033096;28;20503;-84
2021/09/18 00:09:09;;;;;;;18.97;15.20;;;14.00;99.80;;;;;;5037600;28;21005;-85
2021/09/18 00:11:36;;;;;;;22.43;17.10;;;13.90;99.80;;;;;;5040499;28;20469;-84
2021/09/18 00:14:05;;;;;;;23.30;15.40;;;13.90;99.80;;;;;;5038941;28;20479;-85
2021/09/18 00:16:34;;;;;;;22.33;16.40;;;13.90;99.80;;;;;;5030041;28;20591;-84
2021/09/18 00:19:03;;;;;;;22.67;16.63;;;13.80;99.80;;;;;;5025206;28;20558;-84
2021/09/18 00:21:31;;;;;;;26.10;15.73;;;13.70;99.80;;;;;;5045901;28;20495;-85
2021/09/18 00:23:59;;;;;;;19.90;14.40;;;13.60;99.80;;;;;;5050896;28;21005;-84
2021/09/18 00:26:27;;;;;;;18.77;15.50;;;13.50;99.80;;;;;;5050176;28;20467;-85
2021/09/18 00:28:55;;;;;;;20.60;14.93;;;13.50;99.80;;;;;;5037850;28;20486;-85
2021/09/18 00:31:23;;;;;;;21.73;15.60;;;13.40;99.80;;;;;;5038292;28;20498;-84
2021/09/18 00:33:51;;;;;;;21.53;15.87;;;13.30;99.80;;;;;;5045662;28;20475;-85
2021/09/18 00:36:21;;;;;;;19.07;14.80;;;13.30;99.80;;;;;;5049042;28;20482;-85
2021/09/18 00:38:49;;;;;;;22.33;14.77;;;13.30;99.80;;;;;;5034512;28;20482;-84
2021/09/18 00:41:17;;;;;;;21.47;13.80;;;13.30;99.80;;;;;;5046399;28;20487;-84
2021/09/18 00:43:50;;;;;;;27.83;15.60;;;13.30;99.80;;;;;;5036159;28;20480;-85
2021/09/18 00:46:18;;;;;;;16.10;12.73;;;13.30;99.80;;;;;;5047844;28;20483;-84
2021/09/18 00:48:46;;;;;;;20.83;15.13;;;13.30;99.80;;;;;;5040019;28;20471;-84
2021/09/18 00:51:15;;;;;;;18.23;13.00;;;13.30;99.80;;;;;;5044860;28;20993;-85
2021/09/18 00:53:45;;;;;;;19.17;13.93;;;13.30;99.80;;;;;;5039280;28;20487;-84
2021/09/18 00:56:16;;;;;;;19.90;13.87;;;13.30;99.80;;;;;;5024945;28;20518;-83
2021/09/18 00:58:44;;;;;;;19.73;13.10;;;13.40;99.80;;;;;;5046915;28;20565;-83
2021/09/18 01:01:12;;;;;;;21.30;12.67;;;;;;;;;;5045104;28;20490;-84
2021/09/18 01:03:44;;;;;;;23.50;14.60;;;13.40;99.80;;;;;;5047443;28;20973;-84
2021/09/18 01:06:14;;;;;;;18.17;13.80;;;13.40;99.80;;;;;;5046032;28;20463;-84
2021/09/18 01:08:48;;;;;;;14.90;12.30;;;13.30;99.80;;;;;;5032992;28;20469;-84
2021/09/18 01:11:16;;;;;;;19.57;13.97;;;13.30;99.80;;;;;;5040589;28;20459;-85
2021/09/18 01:13:44;;;;;;;19.70;14.70;;;13.20;99.80;;;;;;5039350;28;20455;-85
2021/09/18 01:16:12;;;;;;;20.73;14.17;;;13.20;99.80;;;;;;5036251;28;20544;-84
2021/09/18 01:18:40;;;;;;;17.93;13.53;;;13.30;99.80;;;;;;5041500;28;20475;-85
2021/09/18 01:21:10;;;;;;;18.03;13.33;;;13.30;99.80;;;;;;5036887;28;20468;-84
2021/09/18 01:23:39;;;;;;;18.50;14.40;;;13.30;99.80;;;;;;5032945;28;20468;-84
2021/09/18 01:26:08;;;;;;;22.60;13.33;;;;;;;;;;5045352;28;20475;-84
2021/09/18 01:28:39;;;;;;;18.93;14.20;;;13.30;99.80;;;;;;5034768;28;20554;-84
2021/09/18 01:31:07;;;;;;;15.87;12.40;;;13.20;99.80;;;;;;5035577;28;20839;-85
2021/09/18 01:33:35;;;;;;;19.50;13.80;;;13.20;99.80;;;;;;5048831;28;20480;-85
2021/09/18 01:36:04;;;;;;;18.30;13.83;;;13.20;99.80;;;;;;5031097;28;20570;-86
2021/09/18 01:38:34;;;;;;;16.57;13.27;;;13.10;99.80;;;;;;5047141;28;20521;-85
2021/09/18 01:41:03;;;;;;;19.77;14.03;;;13.10;99.80;;;;;;5045335;28;20525;-84
2021/09/18 01:43:32;;;;;;;23.03;16.30;;;13.10;99.80;;;;;;5038153;28;20479;-84
2021/09/18 01:46:00;;;;;;;19.47;14.07;;;13.10;99.80;;;;;;5032059;28;20897;-84
2021/09/18 01:48:29;;;;;;;19.90;13.37;;;;;;;;;;5043944;28;20463;-84
2021/09/18 01:51:01;;;;;;;17.83;13.00;;;13.00;99.80;;;;;;5043705;28;20533;-85
2021/09/18 01:53:29;;;;;;;18.23;14.17;;;13.00;99.80;;;;;;5037998;28;20845;-85
2021/09/18 01:55:58;;;;;;;20.67;14.20;;;;;;;;;;5027658;28;20491;-84
2021/09/18 01:58:28;;;;;;;15.47;12.80;;;13.00;99.80;;;;;;5029870;28;20478;-84
2021/09/18 02:01:00;;;;;;;19.77;14.17;;;13.00;99.80;;;;;;5046487;28;20480;-84
2021/09/18 02:03:28;;;;;;;16.70;13.33;;;13.00;99.80;;;;;;5040629;28;20484;-84
2021/09/18 02:05:57;;;;;;;20.07;14.07;;;13.00;99.80;;;;;;5039199;28;20452;-84
2021/09/18 02:08:25;;;;;;;17.23;13.40;;;12.90;99.80;;;;;;5052342;28;20440;-84
2021/09/18 02:10:56;;;;;;;17.10;14.00;;;12.90;99.80;;;;;;5038864;28;20452;-84
2021/09/18 02:13:24;;;;;;;17.57;13.53;;;12.90;99.80;;;;;;5052747;28;20514;-85
2021/09/18 02:15:54;;;;;;;18.10;14.00;;;12.90;99.80;;;;;;5066496;28;20495;-84
2021/09/18 02:18:22;;;;;;;18.93;13.80;;;12.90;99.80;;;;;;5067828;28;20497;-84
2021/09/18 02:20:50;;;;;;;19.50;13.40;;;12.80;99.80;;;;;;5059631;28;20487;-84
2021/09/18 02:23:18;;;;;;;15.83;11.40;;;12.70;99.80;;;;;;5022408;28;20459;-84
2021/09/18 02:25:46;;;;;;;18.50;13.77;;;12.70;99.80;;;;;;5042265;28;20502;-83
2021/09/18 02:28:14;;;;;;;22.73;14.10;;;;;;;;;;5044446;28;20497;-84
2021/09/18 02:30:42;;;;;;;17.63;13.43;;;;;;;;;;5043679;28;20471;-84
2021/09/18 02:33:12;;;;;;;17.10;12.87;;;12.60;99.80;;;;;;5045286;28;20480;-84
2021/09/18 02:35:40;;;;;;;22.63;13.30;;;12.60;99.80;;;;;;5040894;28;20461;-84
2021/09/18 02:38:08;;;;;;;29.03;14.30;;;12.60;99.80;;;;;;5059008;28;20549;-86
2021/09/18 02:40:38;;;;;;;19.50;13.13;;;12.50;99.80;;;;;;5051824;28;20490;-87
2021/09/18 02:43:06;;;;;;;23.77;13.73;;;12.50;99.80;;;;;;5035263;28;20483;-86
2021/09/18 02:45:35;;;;;;;60.33;15.07;;;12.60;99.80;;;;;;5048004;28;21087;-84
2021/09/18 02:48:03;;;;;;;95.80;16.47;;;12.50;99.80;;;;;;5056565;28;20458;-87
2021/09/18 02:50:33;;;;;;;32.37;14.90;;;12.50;99.80;;;;;;5054901;28;20474;-84
2021/09/18 02:53:01;;;;;;;42.13;16.60;;;12.40;99.80;;;;;;5050746;28;20475;-84
2021/09/18 02:55:29;;;;;;;43.77;14.50;;;12.40;99.80;;;;;;5053308;28;20494;-85
2021/09/18 02:57:57;;;;;;;20.13;14.47;;;12.30;99.80;;;;;;5035546;28;20992;-85
2021/09/18 03:00:25;;;;;;;19.57;14.10;;;12.30;99.80;;;;;;5047870;28;20482;-84
2021/09/18 03:02:53;;;;;;;19.57;14.60;;;12.30;99.80;;;;;;5053705;28;20494;-84
2021/09/18 03:05:21;;;;;;;17.17;13.03;;;12.20;99.80;;;;;;5050589;28;20466;-84
2021/09/18 03:07:51;;;;;;;20.70;14.20;;;12.20;99.80;;;;;;5054649;28;20471;-85
2021/09/18 03:10:19;;;;;;;21.03;14.00;;;12.20;99.80;;;;;;5044824;28;20554;-84
2021/09/18 03:12:47;;;;;;;20.43;13.53;;;12.10;99.80;;;;;;5059540;28;20474;-84
2021/09/18 03:15:15;;;;;;;23.33;13.90;;;12.10;99.80;;;;;;5052595;28;20482;-84
2021/09/18 03:17:43;;;;;;;20.90;13.20;;;12.00;99.80;;;;;;5048782;28;20532;-84
2021/09/18 03:20:12;;;;;;;28.20;13.40;;;12.00;99.80;;;;;;5055074;28;20504;-84
2021/09/18 03:22:40;;;;;;;41.30;14.37;;;11.90;99.80;;;;;;5044238;28;21168;-84
2021/09/18 03:25:11;;;;;;;100.90;17.40;;;11.90;99.80;;;;;;5038721;28;21041;-85
2021/09/18 03:27:39;;;;;;;27.87;13.40;;;11.90;99.80;;;;;;5029278;28;20483;-84
2021/09/18 03:30:09;;;;;;;16.70;12.40;;;11.90;99.80;;;;;;5043381;28;20473;-84
2021/09/18 03:32:44;;;;;;;16.50;13.47;;;11.80;99.80;;;;;;5040486;28;20872;-84
2021/09/18 03:35:14;;;;;;;19.13;12.70;;;11.80;99.80;;;;;;5058973;28;20478;-85
2021/09/18 03:38:30;;;;;;;;;;;;;;;;;;;;;
2021/09/18 03:41:13;;;;;;;13.07;10.90;;;11.80;99.80;;;;;;5009414;28;20451;-84
2021/09/18 03:43:53;;;;;;;14.00;11.57;;;11.70;99.80;;;;;;5055798;28;20478;-85
2021/09/18 03:46:22;;;;;;;14.30;10.97;;;11.70;99.80;;;;;;5023982;28;20532;-85
2021/09/18 03:48:51;;;;;;;14.57;10.97;;;11.70;99.80;;;;;;5032927;28;20571;-85
2021/09/18 03:51:19;;;;;;;20.60;11.90;;;11.80;99.80;;;;;;5037287;28;20913;-86
2021/09/18 03:53:47;;;;;;;37.40;13.40;;;11.80;99.80;;;;;;5049506;28;21133;-83
2021/09/18 03:56:16;;;;;;;45.83;14.23;;;11.80;99.80;;;;;;5038986;28;20563;-86
2021/09/18 03:58:44;;;;;;;48.90;14.43;;;11.80;99.80;;;;;;5042573;28;20478;-85
2021/09/18 04:01:12;;;;;;;20.10;12.87;;;11.80;99.80;;;;;;5052586;28;20569;-84
2021/09/18 04:03:40;;;;;;;25.37;12.37;;;11.80;99.80;;;;;;5058374;28;20457;-84
2021/09/18 04:06:08;;;;;;;17.60;11.57;;;11.80;99.80;;;;;;5063730;28;20525;-84
2021/09/18 04:08:36;;;;;;;28.63;14.47;;;11.80;99.80;;;;;;5050111;28;20500;-83
2021/09/18 04:11:04;;;;;;;21.13;12.70;;;11.80;99.80;;;;;;5066384;28;20469;-84
2021/09/18 04:13:34;;;;;;;34.40;13.60;;;11.80;99.80;;;;;;5044500;28;20470;-84
2021/09/18 04:16:02;;;;;;;34.23;14.00;;;;;;;;;;5049862;28;20529;-83
2021/09/18 04:18:30;;;;;;;25.00;14.70;;;;;;;;;;5048331;28;21027;-83
2021/09/18 04:21:01;;;;;;;27.40;13.70;;;;;;;;;;5064525;28;20471;-83
2021/09/18 04:23:32;;;;;;;18.87;13.03;;;11.80;99.80;;;;;;5046110;28;20478;-83
2021/09/18 04:26:03;;;;;;;17.37;12.43;;;11.90;99.80;;;;;;5036072;28;20465;-83
2021/09/18 04:28:33;;;;;;;22.40;13.13;;;11.90;99.80;;;;;;5037930;28;20574;-83
2021/09/18 04:31:01;;;;;;;19.20;12.77;;;11.90;99.80;;;;;;5041218;28;20584;-83
2021/09/18 04:33:30;;;;;;;20.40;13.10;;;11.90;99.80;;;;;;5057262;28;20474;-83
2021/09/18 04:35:58;;;;;;;17.23;12.77;;;11.90;99.80;;;;;;5061723;28;20503;-84
2021/09/18 04:38:26;;;;;;;16.80;12.27;;;11.80;99.80;;;;;;5075372;28;20552;-83
2021/09/18 04:40:54;;;;;;;23.63;14.27;;;11.80;99.80;;;;;;5055314;28;21004;-83
2021/09/18 04:43:22;;;;;;;23.30;13.80;;;11.80;99.80;;;;;;5043347;28;20556;-83
2021/09/18 04:45:52;;;;;;;24.03;12.63;;;;;;;;;;5047150;28;20467;-83
2021/09/18 04:48:20;;;;;;;24.73;13.57;;;;;;;;;;5059422;28;20886;-82
2021/09/18 04:50:49;;;;;;;33.23;15.50;;;11.90;99.80;;;;;;5055551;28;20466;-82
2021/09/18 04:53:18;;;;;;;20.33;12.27;;;12.00;99.80;;;;;;5048354;28;20810;-82
2021/09/18 04:55:46;;;;;;;19.73;13.63;;;12.00;99.80;;;;;;5051615;28;20470;-83
2021/09/18 04:58:14;;;;;;;23.60;14.07;;;12.00;99.80;;;;;;5048251;28;20508;-82
2021/09/18 05:00:42;;;;;;;26.77;14.10;;;12.00;99.80;;;;;;5058925;28;20572;-83
2021/09/18 05:03:12;;;;;;;21.20;14.20;;;12.00;99.80;;;;;;5061677;28;20565;-82
2021/09/18 05:05:40;;;;;;;21.17;12.53;;;12.00;99.80;;;;;;5048435;28;20471;-82
2021/09/18 05:08:08;;;;;;;24.10;12.67;;;11.90;99.80;;;;;;5046708;28;20547;-82
2021/09/18 05:10:36;;;;;;;22.23;12.47;;;11.90;99.80;;;;;;5045029;28;20529;-81
2021/09/18 05:13:04;;;;;;;22.63;12.37;;;11.80;99.80;;;;;;5027202;28;20474;-81
2021/09/18 05:15:32;;;;;;;24.33;14.27;;;11.80;99.80;;;;;;5028725;28;20470;-82
2021/09/18 05:18:00;;;;;;;25.13;12.50;;;11.80;99.80;;;;;;5048519;28;20474;-82
2021/09/18 05:20:30;;;;;;;19.90;12.07;;;11.80;99.80;;;;;;5043988;28;20478;-81
2021/09/18 05:22:58;;;;;;;17.37;11.50;;;11.80;99.80;;;;;;5034066;28;20506;-81
2021/09/18 05:25:26;;;;;;;35.67;14.43;;;11.80;99.80;;;;;;5047160;28;20546;-81
2021/09/18 05:27:54;;;;;;;30.47;12.43;;;11.70;99.80;;;;;;5032990;28;20557;-81
2021/09/18 05:30:28;;;;;;;24.77;12.20;;;11.80;99.80;;;;;;5048609;28;20986;-83
2021/09/18 05:32:56;;;;;;;22.50;11.03;;;11.80;99.80;;;;;;5043250;28;20502;-82
2021/09/18 05:35:24;;;;;;;59.43;11.00;;;11.70;99.80;;;;;;5042301;28;20912;-82
2021/09/18 05:37:55;;;;;;;15.40;10.47;;;11.70;99.80;;;;;;5031993;28;20478;-83
2021/09/18 05:40:26;;;;;;;29.10;11.70;;;11.60;99.80;;;;;;5062382;28;20565;-84
2021/09/18 05:42:54;;;;;;;15.60;10.47;;;11.60;99.80;;;;;;5057382;28;20999;-83
2021/09/18 05:45:22;;;;;;;24.33;11.20;;;11.60;99.80;;;;;;5062720;28;20485;-83
2021/09/18 05:47:53;;;;;;;28.43;11.00;;;11.70;99.80;;;;;;5061883;28;20486;-83
2021/09/18 05:50:24;;;;;;;34.63;11.57;;;11.70;99.80;;;;;;5068568;28;20470;-81
2021/09/18 05:52:53;;;;;;;31.13;12.43;;;11.70;99.80;;;;;;5060842;28;20885;-83
2021/09/18 05:55:21;;;;;;;38.13;12.93;;;11.80;99.80;;;;;;5050749;28;20501;-83
2021/09/18 05:57:49;;;;;;;30.97;11.07;;;11.90;99.80;;;;;;5044605;28;20853;-80
2021/09/18 06:00:18;;;;;;;20.73;9.77;;;12.00;99.80;;;;;;5045572;28;20458;-80
2021/09/18 06:02:47;;;;;;;61.37;13.30;;;12.10;99.80;;;;;;5041791;28;20507;-80
2021/09/18 06:05:15;;;;;;;57.80;14.40;;;12.10;99.80;;;;;;5041447;28;21058;-80
2021/09/18 06:07:44;;;;;;;75.33;14.43;;;12.20;99.80;;;;;;5035601;28;20839;-82
2021/09/18 06:10:13;;;;;;;71.93;14.87;;;12.30;99.80;;;;;;5031717;28;20475;-80
2021/09/18 06:12:41;;;;;;;55.87;13.80;;;12.30;99.80;;;;;;5032948;28;20475;-80
2021/09/18 06:15:10;;;;;;;39.20;13.57;;;12.40;99.80;;;;;;5024054;28;20984;-80
2021/09/18 06:17:38;;;;;;;69.17;12.97;;;12.40;99.80;;;;;;5033038;28;20474;-81
2021/09/18 06:20:07;;;;;;;41.13;13.30;;;12.50;99.80;;;;;;5042854;28;20512;-80
2021/09/18 06:22:35;;;;;;;24.73;12.30;;;12.60;99.80;;;;;;5036666;28;20475;-81
2021/09/18 06:25:05;;;;;;;18.17;11.60;;;12.70;99.80;;;;;;5040610;28;20529;-81
2021/09/18 06:27:34;;;;;;;44.40;13.13;;;12.90;99.80;;;;;;5031723;28;20558;-80
2021/09/18 06:30:02;;;;;;;39.47;13.80;;;13.00;99.80;;;;;;5032793;28;20489;-84
2021/09/18 06:32:30;;;;;;;72.70;14.10;;;13.10;99.80;;;;;;5035537;28;20550;-83
2021/09/18 06:34:59;;;;;;;30.13;14.40;;;13.20;99.80;;;;;;5041823;28;20552;-84
2021/09/18 06:37:27;;;;;;;41.67;13.43;;;13.30;99.80;;;;;;5039658;28;20533;-85
2021/09/18 06:39:58;;;;;;;32.97;14.77;;;13.30;99.80;;;;;;5031116;28;20567;-83
2021/09/18 06:42:26;;;;;;;30.40;14.90;;;13.40;99.80;;;;;;5031662;28;21154;-84
2021/09/18 06:44:56;;;;;;;25.90;12.93;;;13.60;99.80;;;;;;5039509;28;20545;-84
2021/09/18 06:47:24;;;;;;;24.60;13.07;;;13.70;99.80;;;;;;5030633;28;20480;-84
2021/09/18 06:49:52;;;;;;;27.97;12.03;;;13.80;99.80;;;;;;5036593;28;20495;-84
2021/09/18 06:52:20;;;;;;;17.30;12.13;;;13.90;99.80;;;;;;5040040;28;20476;-84
2021/09/18 06:54:48;;;;;;;17.53;13.70;;;14.00;99.80;;;;;;5031699;28;20524;-84
2021/09/18 06:57:16;;;;;;;22.60;12.83;;;14.00;99.80;;;;;;5020918;28;20586;-84
2021/09/18 06:59:45;;;;;;;17.00;13.17;;;14.10;99.80;;;;;;5050348;28;20512;-84
2021/09/18 07:02:15;;;;;;;20.13;12.23;;;14.20;99.80;;;;;;5049912;28;20464;-84
2021/09/18 07:04:43;;;;;;;43.73;14.87;;;14.20;99.80;;;;;;5038522;28;20478;-84
2021/09/18 07:07:11;;;;;;;32.43;14.03;;;14.20;99.80;;;;;;5043477;28;20494;-84
2021/09/18 07:09:39;;;;;;;21.00;14.50;;;14.30;99.80;;;;;;5043765;28;20496;-84
2021/09/18 07:12:07;;;;;;;16.07;12.37;;;14.40;99.80;;;;;;5038624;28;20886;-84
2021/09/18 07:14:36;;;;;;;29.50;13.67;;;14.50;99.80;;;;;;5048660;28;20475;-83
2021/09/18 07:17:04;;;;;;;27.83;13.13;;;14.70;99.80;;;;;;5048446;28;20491;-85
2021/09/18 07:19:33;;;;;;;21.10;12.30;;;14.80;99.80;;;;;;5037351;28;20539;-85
2021/09/18 07:22:02;;;;;;;17.00;12.50;;;14.90;99.80;;;;;;5030953;28;20541;-85
2021/09/18 07:24:32;;;;;;;16.97;12.77;;;15.00;99.80;;;;;;5033655;28;20843;-84
2021/09/18 07:27:00;;;;;;;17.37;12.53;;;15.10;99.80;;;;;;5034452;28;20463;-85
2021/09/18 07:29:28;;;;;;;20.30;13.80;;;15.30;99.80;;;;;;5031306;28;20535;-85
2021/09/18 07:31:56;;;;;;;19.70;13.80;;;15.40;99.80;;;;;;5035416;28;20895;-85
2021/09/18 07:34:24;;;;;;;18.33;13.50;;;15.50;99.80;;;;;;5041271;28;20881;-85
2021/09/18 07:36:54;;;;;;;17.20;13.37;;;15.60;99.80;;;;;;5046095;28;20476;-85
2021/09/18 07:39:22;;;;;;;21.40;14.83;;;15.70;99.80;;;;;;5044240;28;20550;-85
2021/09/18 07:41:50;;;;;;;18.20;13.40;;;15.70;99.80;;;;;;5049771;28;20485;-86
2021/09/18 07:44:18;;;;;;;20.27;15.43;;;15.70;99.80;;;;;;5031082;28;20550;-86
2021/09/18 07:46:46;;;;;;;22.77;14.80;;;15.60;99.80;;;;;;5039903;28;20487;-86
2021/09/18 07:49:14;;;;;;;17.27;12.90;;;15.60;99.80;;;;;;5038202;28;20489;-85
2021/09/18 07:51:42;;;;;;;19.87;14.20;;;15.50;99.80;;;;;;5039087;28;20562;-86
2021/09/18 07:54:12;;;;;;;20.93;16.23;;;15.60;99.80;;;;;;5040697;28;20559;-85
2021/09/18 07:56:40;;;;;;;22.07;15.57;;;15.70;99.80;;;;;;5038613;28;20478;-85
2021/09/18 07:59:08;;;;;;;20.73;14.30;;;15.80;99.80;;;;;;5032794;28;20535;-85
2021/09/18 08:01:36;;;;;;;21.63;15.50;;;15.80;99.80;;;;;;5056458;28;20485;-85
2021/09/18 08:04:05;;;;;;;26.57;15.07;;;15.90;99.80;;;;;;5045679;28;20512;-85
2021/09/18 08:06:35;;;;;;;22.50;13.43;;;15.90;99.80;;;;;;5047095;28;20523;-85
2021/09/18 08:09:05;;;;;;;21.87;14.80;;;15.80;99.80;;;;;;5041945;28;20557;-86
2021/09/18 08:11:34;;;;;;;22.37;14.70;;;15.80;99.80;;;;;;5045168;28;20561;-86
2021/09/18 08:14:03;;;;;;;21.67;14.10;;;15.70;99.80;;;;;;5034086;28;20472;-85
2021/09/18 08:16:32;;;;;;;21.40;14.40;;;15.70;99.80;;;;;;5042414;28;20512;-85
2021/09/18 08:19:00;;;;;;;22.53;15.80;;;15.70;99.80;;;;;;5042355;28;20485;-86
2021/09/18 08:21:28;;;;;;;22.13;15.57;;;15.80;99.80;;;;;;5042478;28;20486;-85
2021/09/18 08:23:56;;;;;;;37.40;16.13;;;15.90;99.80;;;;;;5032931;28;20549;-85
2021/09/18 08:26:29;;;;;;;20.60;15.03;;;16.00;99.80;;;;;;5035320;28;20570;-85
2021/09/18 08:28:59;;;;;;;20.43;13.80;;;16.00;99.80;;;;;;5043337;28;20524;-85
2021/09/18 08:31:28;;;;;;;19.57;14.23;;;16.00;99.80;;;;;;5036072;28;20468;-85
2021/09/18 08:33:56;;;;;;;20.03;14.57;;;16.10;99.80;;;;;;5044802;28;20488;-86
2021/09/18 08:36:24;;;;;;;17.90;14.20;;;16.20;99.80;;;;;;5038413;28;20503;-85
2021/09/18 08:38:52;;;;;;;22.57;14.37;;;16.30;99.80;;;;;;5043632;28;20494;-86
2021/09/18 08:41:21;;;;;;;20.57;14.73;;;16.30;99.80;;;;;;5037969;28;20498;-86
2021/09/18 08:43:49;;;;;;;20.80;15.37;;;16.10;99.80;;;;;;5042090;28;20510;-85
2021/09/18 08:46:21;;;;;;;31.13;15.97;;;16.10;99.80;;;;;;5042960;28;20469;-85
2021/09/18 08:48:50;;;;;;;20.73;14.67;;;16.00;99.80;;;;;;5042611;28;20556;-85
2021/09/18 08:51:18;;;;;;;23.97;16.33;;;16.10;99.80;;;;;;5046371;28;20506;-85
2021/09/18 08:53:46;;;;;;;22.93;16.40;;;16.20;99.80;;;;;;5039709;28;20476;-86
2021/09/18 08:56:16;;;;;;;24.00;15.57;;;16.40;99.80;;;;;;5034990;28;20543;-85
2021/09/18 08:58:44;;;;;;;21.00;15.40;;;16.50;99.80;;;;;;5032501;28;20473;-85
2021/09/18 09:01:14;;;;;;;26.40;15.60;;;16.70;99.80;;;;;;5034803;28;20520;-85
2021/09/18 09:03:44;;;;;;;22.40;15.20;;;16.60;99.80;;;;;;5028236;28;20844;-85
2021/09/18 09:06:16;;;;;;;24.20;16.50;;;16.80;99.80;;;;;;5033591;28;20468;-85
2021/09/18 09:08:57;;;;;;;25.23;17.20;;;17.00;99.80;;;;;;5025959;28;20929;-85
2021/09/18 09:11:27;;;;;;;26.20;18.47;;;17.10;99.80;;;;;;5042054;28;20502;-85
2021/09/18 09:13:58;;;;;;;28.10;18.33;;;17.20;99.80;;;;;;5028693;28;20487;-84
2021/09/18 09:16:26;;;;;;;31.33;21.30;;;17.30;99.80;;;;;;5027808;28;20473;-84
2021/09/18 09:18:56;;;;;;;29.83;20.40;;;17.50;99.80;;;;;;5046586;28;20457;-84
2021/09/18 09:21:27;;;;;;;32.97;19.90;;;17.70;99.80;;;;;;5042325;28;20474;-85
2021/09/18 09:24:06;;;;;;;28.83;18.60;;;17.80;99.80;;;;;;5030727;28;20474;-84
2021/09/18 09:26:35;;;;;;;29.27;18.67;;;18.10;99.80;;;;;;5018275;28;20481;-85
2021/09/18 09:29:03;;;;;;;34.17;21.70;;;18.30;99.80;;;;;;5032193;28;20569;-84
2021/09/18 09:31:35;;;;;;;28.10;20.70;;;18.40;99.80;;;;;;5028331;28;20485;-85
2021/09/18 09:34:11;;;;;;;36.97;24.10;;;18.60;99.80;;;;;;5041310;28;20469;-85
2021/09/18 09:36:43;;;;;;;38.37;24.73;;;18.70;99.80;;;;;;5018010;28;20489;-85
2021/09/18 09:39:14;;;;;;;37.07;24.57;;;18.80;99.80;;;;;;5021620;28;20622;-85
2021/09/18 09:41:46;;;;;;;38.00;23.90;;;19.00;99.80;;;;;;5024009;28;20471;-85
2021/09/18 09:44:16;;;;;;;33.60;20.90;;;19.20;99.80;;;;;;5026175;28;20517;-85
2021/09/18 09:46:58;;;;;;;39.23;23.27;;;19.40;99.80;;;;;;5029586;28;20850;-85
2021/09/18 09:49:42;;;;;;;36.73;23.73;;;19.60;99.80;;;;;;5044599;28;20903;-85
2021/09/18 09:52:18;;;;;;;34.93;22.73;;;19.70;99.80;;;;;;5035088;28;20477;-85
2021/09/18 09:54:46;;;;;;;35.13;25.03;;;19.80;99.80;;;;;;5036863;28;20481;-85
2021/09/18 09:57:15;;;;;;;32.70;22.50;;;20.00;99.80;;;;;;5024005;28;20479;-85
2021/09/18 09:59:43;;;;;;;44.03;26.37;;;20.00;99.80;;;;;;5035972;28;20991;-85
2021/09/18 10:02:12;;;;;;;35.00;23.00;;;20.10;99.80;;;;;;5023595;28;20477;-85
2021/09/18 10:04:42;;;;;;;40.17;23.53;;;20.20;99.80;;;;;;5036551;28;20587;-85
2021/09/18 10:07:11;;;;;;;36.83;22.40;;;20.20;99.80;;;;;;5042510;28;20464;-84
2021/09/18 10:09:40;;;;;;;37.83;24.60;;;20.30;99.80;;;;;;5045664;28;20551;-85
2021/09/18 10:12:08;;;;;;;35.37;23.57;;;20.50;99.80;;;;;;5045250;28;21236;-85
2021/09/18 10:14:37;;;;;;;35.43;23.73;;;20.50;99.80;;;;;;5021652;28;20476;-85
2021/09/18 10:17:06;;;;;;;36.70;22.67;;;20.50;99.80;;;;;;5037761;28;20478;-85
2021/09/18 10:20:00;;;;;;;35.07;24.30;;;20.60;99.80;;;;;;5055365;28;20813;-85
2021/09/18 10:25:20;;;;;;;31.43;22.10;;;21.10;99.80;;;;;;5032137;28;20479;-85
2021/09/18 10:28:04;;;;;;;39.07;24.73;;;21.30;99.80;;;;;;5040860;28;20489;-85
2021/09/18 10:30:35;;;;;;;38.20;24.93;;;21.40;99.80;;;;;;5028552;28;20472;-85
2021/09/18 10:33:04;;;;;;;34.13;22.60;;;21.50;99.80;;;;;;5030507;28;20490;-85
2021/09/18 10:35:33;;;;;;;38.17;25.90;;;21.70;99.80;;;;;;5044228;28;20507;-85
2021/09/18 10:38:24;;;;;;;43.40;26.60;;;21.80;99.80;;;;;;5035167;28;20536;-85
2021/09/18 10:41:02;;;;;;;38.73;26.00;;;21.90;99.80;;;;;;5031110;28;20492;-85
2021/09/18 10:43:32;;;;;;;35.27;23.63;;;21.90;99.80;;;;;;5042432;28;20489;-85
2021/09/18 10:46:01;;;;;;;36.87;24.43;;;21.90;99.80;;;;;;5044495;28;20477;-85
2021/09/18 10:48:42;;;;;;;40.77;25.83;;;22.00;99.80;;;;;;5030130;28;20511;-86
2021/09/18 10:51:34;;;;;;;36.97;24.13;;;21.80;99.80;;;;;;5043811;28;20502;-87
2021/09/18 10:54:24;;;;;;;31.13;20.27;;;21.40;99.80;;;;;;5039175;28;20480;-85
2021/09/18 10:56:57;;;;;;;35.40;23.60;;;21.60;99.80;;;;;;5031084;28;20903;-85
2021/09/18 10:59:42;;;;;;;30.10;20.80;;;22.00;99.80;;;;;;5045808;28;20485;-84
2021/09/18 11:02:42;;;;;;;30.33;20.00;;;22.30;99.80;;;;;;5017001;28;20476;-84
2021/09/18 11:05:11;;;;;;;33.00;21.60;;;22.30;99.80;;;;;;5052720;28;20863;-85
2021/09/18 11:07:43;;;;;;;32.93;21.50;;;22.50;99.80;;;;;;5043472;28;21011;-85
2021/09/18 11:10:15;;;;;;;29.00;19.80;;;22.80;99.80;;;;;;5038735;28;20467;-85
2021/09/18 11:13:17;;;;;;;29.37;18.23;;;23.00;98.60;;;;;;5043950;28;20478;-85
2021/09/18 11:15:47;;;;;;;29.93;19.60;;;23.00;99.50;;;;;;5031202;28;20559;-85
2021/09/18 11:18:16;;;;;;;28.17;19.63;;;23.30;98.40;;;;;;5032025;28;20521;-85
2021/09/18 11:20:47;;;;;;;27.37;19.30;;;23.40;99.10;;;;;;5028545;28;21018;-85
2021/09/18 11:23:33;;;;;;;24.70;18.60;;;23.60;96.90;;;;;;5026747;28;20471;-85
2021/09/18 11:26:03;;;;;;;26.37;17.07;;;23.60;94.70;;;;;;5026414;28;21103;-85
2021/09/18 11:28:35;;;;;;;24.03;15.57;;;;;;;;;;5051191;28;21103;-87
2021/09/18 11:31:09;;;;;;;24.20;15.70;;;;;;;;;;5040132;28;20457;-91
2021/09/18 11:33:38;;;;;;;21.30;15.40;;;;;;;;;;5044048;28;20560;-90
2021/09/18 11:36:06;;;;;;;24.37;16.77;;;;;;;;;;5053936;28;20484;-90
2021/09/18 11:38:35;;;;;;;32.57;17.40;;;;;;;;;;5049490;28;20480;-90
2021/09/18 11:41:06;;;;;;;18.00;13.60;;;;;;;;;;5038703;28;20476;-92
2021/09/18 11:43:34;;;;;;;18.10;12.53;;;;;;;;;;5045912;28;20475;-90
2021/09/18 11:46:03;;;;;;;15.53;11.40;;;;;;;;;;5024516;28;20469;-90
2021/09/18 11:48:32;;;;;;;12.90;9.60;;;;;;;;;;5041323;28;20472;-91
2021/09/18 11:51:02;;;;;;;14.10;11.30;;;;;;;;;;5048793;28;20490;-91
2021/09/18 11:53:31;;;;;;;15.20;12.20;;;;;;;;;;5037774;28;20476;-91
2021/09/18 11:56:02;;;;;;;12.77;10.23;;;;;;;;;;5054862;28;20490;-91
2021/09/18 11:58:34;;;;;;;13.50;11.20;;;;;;;;;;5033451;28;20477;-91
2021/09/18 12:01:07;;;;;;;13.00;10.00;;;;;;;;;;5032832;28;20479;-88
2021/09/18 12:03:38;;;;;;;10.10;8.57;;;;;;;;;;5039236;28;20465;-89
2021/09/18 12:06:08;;;;;;;10.50;8.80;;;;;;;;;;5041453;28;20518;-89
2021/09/18 12:08:38;;;;;;;12.90;11.10;;;;;;;;;;5042381;28;20480;-89
2021/09/18 12:11:11;;;;;;;10.93;9.43;;;;;;;;;;5043167;28;20562;-90
2021/09/18 12:13:42;;;;;;;11.40;9.50;;;;;;;;;;5028246;28;20486;-89
2021/09/18 12:16:11;;;;;;;11.00;9.80;;;;;;;;;;5037367;28;20473;-89
2021/09/18 12:18:40;;;;;;;11.87;10.13;;;;;;;;;;5026899;28;20829;-90
2021/09/18 12:21:09;;;;;;;13.50;10.93;;;;;;;;;;5046385;28;20483;-90
2021/09/18 12:23:41;;;;;;;11.30;10.20;;;;;;;;;;5044564;28;20482;-90
2021/09/18 12:26:10;;;;;;;12.07;10.50;;;;;;;;;;5011626;28;20489;-89
2021/09/18 12:28:38;;;;;;;14.27;12.43;;;;;;;;;;5029510;28;20486;-89
2021/09/18 12:31:16;;;;;;;11.93;10.80;;;;;;;;;;5030289;28;20478;-90
2021/09/18 12:33:44;;;;;;;12.07;10.87;;;;;;;;;;5040074;28;20738;-89
2021/09/18 12:36:14;;;;;;;13.17;11.77;;;;;;;;;;5034985;28;21233;-89
2021/09/18 12:38:42;;;;;;;14.53;11.40;;;;;;;;;;5032625;28;20477;-89
2021/09/18 12:41:12;;;;;;;11.47;10.27;;;;;;;;;;5036002;28;20484;-89
2021/09/18 12:43:56;;;;;;;14.77;12.60;;;;;;;;;;5043532;28;20486;-89
2021/09/18 12:46:26;;;;;;;14.83;11.47;;;;;;;;;;5046433;28;20744;-89
2021/09/18 12:48:57;;;;;;;13.10;11.00;;;;;;;;;;5046561;28;20558;-88
2021/09/18 12:51:26;;;;;;;13.13;11.03;;;;;;;;;;5040307;28;20456;-90
2021/09/18 12:53:55;;;;;;;12.87;11.53;;;;;;;;;;5037574;28;20477;-89
2021/09/18 12:56:25;;;;;;;12.17;10.10;;;;;;;;;;5026748;28;20467;-89
2021/09/18 12:58:54;;;;;;;12.67;9.50;;;;;;;;;;5032476;28;21004;-89
2021/09/18 13:01:24;;;;;;;10.00;8.80;;;;;;;;;;5034386;28;20546;-89
2021/09/18 13:04:04;;;;;;;9.30;8.40;;;;;;;;;;5034521;28;20521;-89